createdAt,value
2022-08-21T00:00:45.289Z,7.18
2022-08-21T00:03:14.754Z,7.18
2022-08-21T00:05:46.377Z,7.22
2022-08-21T00:08:14.843Z,7.43
2022-08-21T00:10:43.497Z,7.53
2022-08-21T00:13:13.117Z,6.30
2022-08-21T00:15:49.815Z,7.00
2022-08-21T00:18:19.228Z,6.35
2022-08-21T00:20:48.814Z,6.55
2022-08-21T00:23:18.287Z,6.63
2022-08-21T00:25:47.773Z,7.28
2022-08-21T00:28:16.699Z,6.13
2022-08-21T00:30:45.543Z,7.03
2022-08-21T00:33:15.786Z,6.72
2022-08-21T00:35:45.562Z,6.28
2022-08-21T00:38:14.082Z,5.97
2022-08-21T00:40:46.687Z,6.90
2022-08-21T00:43:17.570Z,6.05
2022-08-21T00:45:46.374Z,5.38
2022-08-21T00:48:16.188Z,6.38
2022-08-21T00:50:48.583Z,6.20
2022-08-21T00:53:18.504Z,6.07
2022-08-21T00:55:47.640Z,6.93
2022-08-21T00:58:17.489Z,5.88
2022-08-21T01:00:50.155Z,6.28
2022-08-21T01:03:23.809Z,6.60
2022-08-21T01:05:53.425Z,5.90
2022-08-21T01:08:22.776Z,5.72
2022-08-21T01:10:54.626Z,6.13
2022-08-21T01:13:29.046Z,6.05
2022-08-21T01:16:00.347Z,6.47
2022-08-21T01:18:31.026Z,6.22
2022-08-21T01:21:12.830Z,5.68
2022-08-21T01:23:45.213Z,6.13
2022-08-21T01:26:17.164Z,5.63
2022-08-21T01:28:50.256Z,6.18
2022-08-21T01:31:26.058Z,5.63
2022-08-21T01:33:56.317Z,6.00
2022-08-21T01:36:27.292Z,6.82
2022-08-21T01:38:56.055Z,6.05
2022-08-21T01:41:24.879Z,6.32
2022-08-21T01:43:53.223Z,6.35
2022-08-21T01:46:21.719Z,7.43
2022-08-21T01:48:50.954Z,6.35
2022-08-21T01:51:19.333Z,7.07
2022-08-21T01:53:49.819Z,7.30
2022-08-21T01:56:19.899Z,8.50
2022-08-21T01:58:49.709Z,7.68
2022-08-21T02:01:18.299Z,7.55
2022-08-21T02:03:46.851Z,6.72
2022-08-21T02:06:18.964Z,7.68
2022-08-21T02:08:51.564Z,6.82
2022-08-21T02:11:20.880Z,6.78
2022-08-21T02:13:49.220Z,6.95
2022-08-21T02:16:19.500Z,6.82
2022-08-21T02:18:48.434Z,6.80
2022-08-21T02:21:17.200Z,6.88
2022-08-21T02:23:45.979Z,6.63
2022-08-21T02:26:15.913Z,6.47
2022-08-21T02:28:44.458Z,7.45
2022-08-21T02:31:13.286Z,5.85
2022-08-21T02:33:42.358Z,6.38
2022-08-21T02:36:12.725Z,5.78
2022-08-21T02:38:42.814Z,5.80
2022-08-21T02:41:17.005Z,6.45
2022-08-21T02:43:45.825Z,6.20
2022-08-21T02:46:18.271Z,5.30
2022-08-21T02:48:47.290Z,5.38
2022-08-21T02:51:19.229Z,5.22
2022-08-21T02:53:49.649Z,5.20
2022-08-21T02:56:23.385Z,5.32
2022-08-21T02:58:54.146Z,5.35
2022-08-21T03:01:23.163Z,4.70
2022-08-21T03:03:51.989Z,5.25
2022-08-21T03:06:23.043Z,5.30
2022-08-21T03:08:51.932Z,4.97
2022-08-21T03:11:22.464Z,4.82
2022-08-21T03:13:51.209Z,4.80
2022-08-21T03:16:21.666Z,5.13
2022-08-21T03:18:50.205Z,5.10
2022-08-21T03:21:19.920Z,4.97
2022-08-21T03:23:48.695Z,4.20
2022-08-21T03:26:17.108Z,5.10
2022-08-21T03:28:49.779Z,4.78
2022-08-21T03:31:18.676Z,4.32
2022-08-21T03:33:47.339Z,4.18
2022-08-21T03:36:15.727Z,4.43
2022-08-21T03:38:44.334Z,4.18
2022-08-21T03:41:12.643Z,4.43
2022-08-21T03:43:41.004Z,4.50
2022-08-21T03:46:11.740Z,3.55
2022-08-21T03:48:40.765Z,4.00
2022-08-21T03:51:09.436Z,3.65
2022-08-21T03:53:38.195Z,3.40
2022-08-21T03:56:07.689Z,3.38
2022-08-21T03:58:36.347Z,4.07
2022-08-21T04:01:09.147Z,3.80
2022-08-21T04:03:39.939Z,3.67
2022-08-21T04:06:09.374Z,3.45
2022-08-21T04:08:37.801Z,3.65
2022-08-21T04:11:08.403Z,3.30
2022-08-21T04:13:44.620Z,3.63
2022-08-21T04:16:13.379Z,3.10
2022-08-21T04:18:43.755Z,3.22
2022-08-21T04:21:13.543Z,2.85
2022-08-21T04:23:42.924Z,3.03
2022-08-21T04:26:12.799Z,2.83
2022-08-21T04:28:41.202Z,2.35
2022-08-21T04:31:10.412Z,2.90
2022-08-21T04:33:38.959Z,3.33
2022-08-21T04:36:09.311Z,3.15
2022-08-21T04:38:37.922Z,3.10
2022-08-21T04:41:11.568Z,2.88
2022-08-21T04:43:40.791Z,2.80
2022-08-21T04:46:09.255Z,2.92
2022-08-21T04:48:42.629Z,3.00
2022-08-21T04:51:15.285Z,1.90
2022-08-21T04:53:47.564Z,2.50
2022-08-21T04:56:22.045Z,2.60
2022-08-21T04:58:53.241Z,2.42
2022-08-21T05:01:24.942Z,2.58
2022-08-21T05:03:57.432Z,2.47
2022-08-21T05:06:27.912Z,2.33
2022-08-21T05:09:01.810Z,3.03
2022-08-21T05:11:31.503Z,2.38
2022-08-21T05:14:00.366Z,2.80
2022-08-21T05:16:36.524Z,2.95
2022-08-21T05:19:07.304Z,2.70
2022-08-21T05:21:38.368Z,2.85
2022-08-21T05:24:06.930Z,1.90
2022-08-21T05:26:45.371Z,2.33
2022-08-21T05:29:16.890Z,3.05
2022-08-21T05:31:47.465Z,2.97
2022-08-21T05:34:17.385Z,3.22
2022-08-21T05:36:47.228Z,2.50
2022-08-21T05:39:15.936Z,3.72
2022-08-21T05:41:44.646Z,2.58
2022-08-21T05:44:12.974Z,3.00
2022-08-21T05:46:41.193Z,2.78
2022-08-21T05:49:09.746Z,2.80
2022-08-21T05:51:38.081Z,2.30
2022-08-21T05:54:07.762Z,2.15
2022-08-21T05:56:36.376Z,2.90
2022-08-21T05:59:08.614Z,3.10
2022-08-21T06:01:37.400Z,2.78
2022-08-21T06:04:08.140Z,3.30
2022-08-21T06:06:37.042Z,4.30
2022-08-21T06:09:07.625Z,2.97
2022-08-21T06:11:36.066Z,3.47
2022-08-21T06:14:07.277Z,3.95
2022-08-21T06:16:35.977Z,3.13
2022-08-21T06:19:04.300Z,4.03
2022-08-21T06:21:32.742Z,2.42
2022-08-21T06:24:01.303Z,2.70
2022-08-21T06:26:31.164Z,4.07
2022-08-21T06:28:59.813Z,3.35
2022-08-21T06:31:29.704Z,3.13
2022-08-21T06:33:58.639Z,3.35
2022-08-21T06:36:26.998Z,3.88
2022-08-21T06:38:57.159Z,3.90
2022-08-21T06:41:27.024Z,4.35
2022-08-21T06:43:58.680Z,4.20
2022-08-21T06:46:29.547Z,3.55
2022-08-21T06:48:59.114Z,3.63
2022-08-21T06:51:28.448Z,3.70
2022-08-21T06:53:59.413Z,3.92
2022-08-21T06:56:27.947Z,3.75
2022-08-21T06:58:58.364Z,3.83
2022-08-21T07:01:28.329Z,3.88
2022-08-21T07:03:57.050Z,4.05
2022-08-21T07:06:25.847Z,4.60
2022-08-21T07:08:54.196Z,4.00
2022-08-21T07:11:27.747Z,4.05
2022-08-21T07:13:57.760Z,5.13
2022-08-21T07:16:26.854Z,4.20
2022-08-21T07:18:56.119Z,4.35
2022-08-21T07:21:26.186Z,4.82
2022-08-21T07:23:55.230Z,3.35
2022-08-21T07:26:25.605Z,3.42
2022-08-21T07:28:55.061Z,4.07
2022-08-21T07:31:27.114Z,3.97
2022-08-21T07:33:56.555Z,3.00
2022-08-21T07:36:25.062Z,4.38
2022-08-21T07:38:53.508Z,4.45
2022-08-21T07:41:24.515Z,3.90
2022-08-21T07:43:53.881Z,4.30
2022-08-21T07:46:23.807Z,3.60
2022-08-21T07:48:53.714Z,4.13
2022-08-21T07:51:28.663Z,4.65
2022-08-21T07:53:59.339Z,3.40
2022-08-21T07:56:28.814Z,3.58
2022-08-21T07:58:58.546Z,3.33
2022-08-21T08:01:28.956Z,3.78
2022-08-21T08:03:57.520Z,4.97
2022-08-21T08:06:26.991Z,3.55
2022-08-21T08:08:55.662Z,3.65
2022-08-21T08:11:24.353Z,3.78
2022-08-21T08:13:54.176Z,4.53
2022-08-21T08:16:23.036Z,3.60
2022-08-21T08:18:53.490Z,3.92
2022-08-21T08:21:22.192Z,3.83
2022-08-21T08:23:51.423Z,3.55
2022-08-21T08:26:19.799Z,3.85
2022-08-21T08:28:48.674Z,6.63
2022-08-21T08:31:17.680Z,7.93
2022-08-21T08:33:46.133Z,6.18
2022-08-21T08:36:20.374Z,6.78
2022-08-21T08:38:49.742Z,5.32
2022-08-21T08:41:22.683Z,10.13
2022-08-21T08:43:53.906Z,10.68
2022-08-21T08:46:37.249Z,15.05
2022-08-21T08:49:12.225Z,8.20
2022-08-21T08:51:53.097Z,10.30
2022-08-21T08:54:32.488Z,15.23
2022-08-21T08:57:02.481Z,8.93
2022-08-21T08:59:40.433Z,19.40
2022-08-21T09:02:12.791Z,9.75
2022-08-21T09:04:42.085Z,8.77
2022-08-21T09:07:18.334Z,7.47
2022-08-21T09:10:03.427Z,10.45
2022-08-21T09:12:40.751Z,10.80
2022-08-21T09:15:15.758Z,8.02
2022-08-21T09:18:01.410Z,13.32
2022-08-21T09:20:46.643Z,8.73
2022-08-21T09:23:26.092Z,7.40
2022-08-21T09:26:04.083Z,5.40
2022-08-21T09:28:35.747Z,5.60
2022-08-21T09:31:08.001Z,4.38
2022-08-21T09:33:36.896Z,5.57
2022-08-21T09:36:06.306Z,5.43
2022-08-21T09:38:38.782Z,4.22
2022-08-21T09:41:10.892Z,4.38
2022-08-21T09:43:39.994Z,9.50
2022-08-21T09:46:12.061Z,12.38
2022-08-21T09:48:44.395Z,8.40
2022-08-21T09:51:15.871Z,6.00
2022-08-21T09:53:49.740Z,5.00
2022-08-21T09:56:44.828Z,4.55
2022-08-21T09:59:21.077Z,5.65
2022-08-21T10:01:51.881Z,4.75
2022-08-21T10:04:24.529Z,4.20
2022-08-21T10:06:53.306Z,4.72
2022-08-21T10:09:28.097Z,4.35
2022-08-21T10:12:10.931Z,4.45
2022-08-21T10:14:52.708Z,4.85
2022-08-21T10:17:29.515Z,4.53
2022-08-21T10:20:05.570Z,6.60
2022-08-21T10:22:44.260Z,9.65
2022-08-21T10:25:20.169Z,11.23
2022-08-21T10:28:01.000Z,5.93
2022-08-21T10:30:38.485Z,16.00
2022-08-21T10:33:18.554Z,12.45
2022-08-21T10:35:55.971Z,10.63
2022-08-21T10:38:58.570Z,9.95
2022-08-21T10:41:42.651Z,5.15
2022-08-21T10:44:24.919Z,5.50
2022-08-21T10:47:00.080Z,5.25
2022-08-21T10:49:39.676Z,4.82
2022-08-21T10:52:28.191Z,5.00
2022-08-21T10:55:02.447Z,4.60
2022-08-21T10:57:42.632Z,3.60
2022-08-21T11:00:14.539Z,3.85
2022-08-21T11:02:47.002Z,3.80
2022-08-21T11:05:20.923Z,4.43
2022-08-21T11:07:52.450Z,4.15
2022-08-21T11:10:26.631Z,4.03
2022-08-21T11:13:00.745Z,4.50
2022-08-21T11:15:37.423Z,3.67
2022-08-21T11:18:17.525Z,3.97
2022-08-21T11:20:52.539Z,4.28
2022-08-21T11:23:27.086Z,3.83
2022-08-21T11:26:08.009Z,3.70
2022-08-21T11:28:42.948Z,4.05
2022-08-21T11:31:26.681Z,3.60
2022-08-21T11:34:06.958Z,4.15
2022-08-21T11:36:47.142Z,4.45
2022-08-21T11:39:25.082Z,4.47
2022-08-21T11:42:08.836Z,4.47
2022-08-21T11:44:50.723Z,6.07
2022-08-21T11:47:31.207Z,5.40
2022-08-21T11:50:29.763Z,4.40
2022-08-21T11:53:05.179Z,3.78
2022-08-21T11:55:39.466Z,3.90
2022-08-21T11:58:12.046Z,9.85
2022-08-21T12:00:48.175Z,4.95
2022-08-21T12:03:19.379Z,7.65
2022-08-21T12:05:58.253Z,7.38
2022-08-21T12:08:33.033Z,6.60
2022-08-21T12:11:06.998Z,8.73
2022-08-21T12:13:40.209Z,5.65
2022-08-21T12:16:13.990Z,4.90
2022-08-21T12:18:43.309Z,3.53
2022-08-21T12:21:26.873Z,5.38
2022-08-21T12:24:05.143Z,4.43
2022-08-21T12:26:36.146Z,12.15
2022-08-21T12:29:14.107Z,4.20
2022-08-21T12:31:58.463Z,5.28
2022-08-21T12:34:35.757Z,5.85
2022-08-21T12:37:09.705Z,5.20
2022-08-21T12:39:45.106Z,4.60
2022-08-21T12:42:19.417Z,3.55
2022-08-21T12:44:52.880Z,3.97
2022-08-21T12:47:31.727Z,3.60
2022-08-21T12:50:07.143Z,2.85
2022-08-21T12:52:39.689Z,3.38
2022-08-21T12:55:09.529Z,2.78
2022-08-21T12:57:39.111Z,2.38
2022-08-21T13:00:12.447Z,3.95
2022-08-21T13:02:51.744Z,2.33
2022-08-21T13:05:29.516Z,3.28
2022-08-21T13:07:58.901Z,3.40
2022-08-21T13:10:30.438Z,5.20
2022-08-21T13:13:01.532Z,5.88
2022-08-21T13:15:47.459Z,2.72
2022-08-21T13:18:27.409Z,3.85
2022-08-21T13:21:06.530Z,3.47
2022-08-21T13:23:35.208Z,4.05
2022-08-21T13:26:18.242Z,17.98
2022-08-21T13:28:48.626Z,15.82
2022-08-21T13:31:21.974Z,3.88
2022-08-21T13:33:52.461Z,7.35
2022-08-21T13:36:27.075Z,4.43
2022-08-21T13:38:56.105Z,4.28
2022-08-21T13:41:28.751Z,6.03
2022-08-21T13:44:01.073Z,3.33
2022-08-21T13:46:33.077Z,3.42
2022-08-21T13:49:05.262Z,2.72
2022-08-21T13:51:34.641Z,2.97
2022-08-21T13:54:03.958Z,2.85
2022-08-21T13:56:35.520Z,2.97
2022-08-21T13:59:05.110Z,2.95
2022-08-21T14:01:37.814Z,2.90
2022-08-21T14:04:18.387Z,3.50
2022-08-21T14:06:46.830Z,2.88
2022-08-21T14:09:27.764Z,3.45
2022-08-21T14:11:58.178Z,4.13
2022-08-21T14:14:30.560Z,2.67
2022-08-21T14:17:01.465Z,2.95
2022-08-21T14:19:46.931Z,3.50
2022-08-21T14:22:30.654Z,3.05
2022-08-21T14:25:03.947Z,2.92
2022-08-21T14:27:33.041Z,3.22
2022-08-21T14:30:10.567Z,3.05
2022-08-21T14:32:46.024Z,7.97
2022-08-21T14:35:18.420Z,8.98
2022-08-21T14:37:52.452Z,30.95
2022-08-21T14:40:23.631Z,7.07
2022-08-21T14:42:53.391Z,9.68
2022-08-21T14:45:28.358Z,3.10
2022-08-21T14:47:57.468Z,3.20
2022-08-21T14:50:28.371Z,2.53
2022-08-21T14:52:56.949Z,2.72
2022-08-21T14:55:25.716Z,3.13
2022-08-21T14:57:56.698Z,3.42
2022-08-21T15:00:35.529Z,3.20
2022-08-21T15:03:05.187Z,3.80
2022-08-21T15:05:34.954Z,3.95
2022-08-21T15:08:04.067Z,3.35
2022-08-21T15:10:41.272Z,3.25
2022-08-21T15:13:16.938Z,3.45
2022-08-21T15:15:47.991Z,3.70
2022-08-21T15:18:16.369Z,3.25
2022-08-21T15:20:46.024Z,2.92
2022-08-21T15:23:15.148Z,2.72
2022-08-21T15:25:45.634Z,3.75
2022-08-21T15:28:14.465Z,3.97
2022-08-21T15:30:43.998Z,13.38
2022-08-21T15:33:12.565Z,3.95
2022-08-21T15:35:41.244Z,3.33
2022-08-21T15:38:11.798Z,7.65
2022-08-21T15:40:51.457Z,6.38
2022-08-21T15:43:30.146Z,5.78
2022-08-21T15:46:00.858Z,3.50
2022-08-21T15:48:29.722Z,3.90
2022-08-21T15:50:58.251Z,3.67
2022-08-21T15:53:28.091Z,3.60
2022-08-21T15:55:56.776Z,2.72
2022-08-21T15:58:25.139Z,3.42
2022-08-21T16:00:53.589Z,3.92
2022-08-21T16:03:22.943Z,3.15
2022-08-21T16:05:53.365Z,4.60
2022-08-21T16:08:23.282Z,9.35
2022-08-21T16:10:54.094Z,3.80
2022-08-21T16:13:27.645Z,2.97
2022-08-21T16:15:56.634Z,3.88
2022-08-21T16:18:26.602Z,4.18
2022-08-21T16:20:55.044Z,4.40
2022-08-21T16:23:23.844Z,3.70
2022-08-21T16:25:53.871Z,3.83
2022-08-21T16:28:24.685Z,4.05
2022-08-21T16:30:53.811Z,3.70
2022-08-21T16:33:26.417Z,2.85
2022-08-21T16:35:54.971Z,3.65
2022-08-21T16:38:23.357Z,3.25
2022-08-21T16:40:53.236Z,3.38
2022-08-21T16:43:23.410Z,2.63
2022-08-21T16:45:52.120Z,3.05
2022-08-21T16:48:20.407Z,3.15
2022-08-21T16:50:51.053Z,3.05
2022-08-21T16:53:19.551Z,3.45
2022-08-21T16:55:48.249Z,2.83
2022-08-21T16:58:27.196Z,3.35
2022-08-21T17:00:55.725Z,2.40
2022-08-21T17:03:31.379Z,3.40
2022-08-21T17:05:59.775Z,2.88
2022-08-21T17:08:28.556Z,2.72
2022-08-21T17:10:57.397Z,4.05
2022-08-21T17:13:28.564Z,3.80
2022-08-21T17:15:57.871Z,3.65
2022-08-21T17:18:27.887Z,3.97
2022-08-21T17:20:56.652Z,2.72
2022-08-21T17:23:25.474Z,3.63
2022-08-21T17:25:55.212Z,3.42
2022-08-21T17:28:26.697Z,3.25
2022-08-21T17:31:01.888Z,3.50
2022-08-21T17:33:38.943Z,2.90
2022-08-21T17:36:08.303Z,3.80
2022-08-21T17:38:37.667Z,3.72
2022-08-21T17:41:08.409Z,3.63
2022-08-21T17:43:38.182Z,3.20
2022-08-21T17:46:08.520Z,3.25
2022-08-21T17:48:36.930Z,3.45
2022-08-21T17:51:09.526Z,3.03
2022-08-21T17:53:39.550Z,3.92
2022-08-21T17:56:08.879Z,3.50
2022-08-21T17:58:38.105Z,4.47
2022-08-21T18:01:07.937Z,4.22
2022-08-21T18:03:38.356Z,3.53
2022-08-21T18:06:08.010Z,3.47
2022-08-21T18:08:36.379Z,3.47
2022-08-21T18:11:06.126Z,4.53
2022-08-21T18:13:40.989Z,4.47
2022-08-21T18:16:12.629Z,3.22
2022-08-21T18:18:43.769Z,5.30
2022-08-21T18:21:13.994Z,3.83
2022-08-21T18:23:44.448Z,3.67
2022-08-21T18:26:16.148Z,3.58
2022-08-21T18:28:45.412Z,3.28
2022-08-21T18:31:15.810Z,3.45
2022-08-21T18:33:58.507Z,2.60
2022-08-21T18:36:29.469Z,2.70
2022-08-21T18:39:19.203Z,2.67
2022-08-21T18:41:49.203Z,3.10
2022-08-21T18:44:19.617Z,2.17
2022-08-21T18:46:53.447Z,2.58
2022-08-21T18:49:22.093Z,2.70
2022-08-21T18:51:50.919Z,2.55
2022-08-21T18:54:19.218Z,2.35
2022-08-21T18:56:50.534Z,2.65
2022-08-21T18:59:22.352Z,2.33
2022-08-21T19:01:51.984Z,2.50
2022-08-21T19:04:43.221Z,2.65
2022-08-21T19:07:09.034Z,3.17
2022-08-21T19:09:37.871Z,2.92
2022-08-21T19:12:08.586Z,2.45
2022-08-21T19:14:40.195Z,2.72
2022-08-21T19:17:10.256Z,3.40
2022-08-21T19:19:39.363Z,2.63
2022-08-21T19:22:11.110Z,2.78
2022-08-21T19:24:40.187Z,2.45
2022-08-21T19:27:19.213Z,2.60
2022-08-21T19:29:47.571Z,2.22
2022-08-21T19:32:19.346Z,2.75
2022-08-21T19:34:51.211Z,3.38
2022-08-21T19:37:20.585Z,3.00
2022-08-21T19:39:50.552Z,3.05
2022-08-21T19:42:22.136Z,2.55
2022-08-21T19:44:57.703Z,2.80
2022-08-21T19:47:29.354Z,2.45
2022-08-21T19:50:01.081Z,2.30
2022-08-21T19:52:35.668Z,2.42
2022-08-21T19:55:04.424Z,2.08
2022-08-21T19:57:34.714Z,2.58
2022-08-21T20:00:03.823Z,2.85
2022-08-21T20:02:37.441Z,3.60
2022-08-21T20:05:18.281Z,2.67
2022-08-21T20:07:46.972Z,3.00
2022-08-21T20:10:15.448Z,2.95
2022-08-21T20:12:47.487Z,3.20
2022-08-21T20:15:20.014Z,2.83
2022-08-21T20:17:50.724Z,2.70
2022-08-21T20:20:19.389Z,3.20
2022-08-21T20:22:47.773Z,3.35
2022-08-21T20:25:16.727Z,2.53
2022-08-21T20:27:50.216Z,3.10
2022-08-21T20:30:22.890Z,2.53
2022-08-21T20:32:53.184Z,2.78
2022-08-21T20:35:21.652Z,2.90
2022-08-21T20:37:59.036Z,3.22
2022-08-21T20:40:32.789Z,2.58
2022-08-21T20:43:02.498Z,3.08
2022-08-21T20:45:34.855Z,3.85
2022-08-21T20:48:11.875Z,2.67
2022-08-21T20:50:43.502Z,3.80
2022-08-21T20:53:15.812Z,2.85
2022-08-21T20:55:48.119Z,3.40
2022-08-21T20:58:29.708Z,3.38
2022-08-21T21:01:02.328Z,4.72
2022-08-21T21:03:36.535Z,2.70
2022-08-21T21:06:09.134Z,3.45
2022-08-21T21:08:46.687Z,3.42
2022-08-21T21:11:20.810Z,2.75
2022-08-21T21:13:54.242Z,3.10
2022-08-21T21:16:34.504Z,3.83
2022-08-21T21:22:00.771Z,3.58
2022-08-21T21:24:36.739Z,3.17
2022-08-21T21:27:12.290Z,3.53
2022-08-21T21:29:44.913Z,3.40
2022-08-21T21:32:17.854Z,3.75
2022-08-21T21:34:51.204Z,3.10
2022-08-21T21:37:26.295Z,3.30
2022-08-21T21:40:02.937Z,3.42
2022-08-21T21:42:40.371Z,3.05
2022-08-21T21:45:21.294Z,2.58
2022-08-21T21:48:03.226Z,2.92
2022-08-21T21:50:51.030Z,2.80
2022-08-21T21:53:40.693Z,2.25
2022-08-21T21:56:19.093Z,2.38
2022-08-21T21:59:08.251Z,2.20
2022-08-21T22:01:41.658Z,2.92
2022-08-21T22:04:19.142Z,2.65
2022-08-21T22:06:57.417Z,2.63
2022-08-21T22:09:39.314Z,2.28
2022-08-21T22:12:20.243Z,2.30
2022-08-21T22:14:48.912Z,2.65
2022-08-21T22:17:41.107Z,2.75
2022-08-21T22:20:16.227Z,2.17
2022-08-21T22:22:48.125Z,2.35
2022-08-21T22:25:21.340Z,2.72
2022-08-21T22:27:57.902Z,2.67
2022-08-21T22:30:41.836Z,3.13
2022-08-21T22:33:19.959Z,2.33
2022-08-21T22:35:51.570Z,3.03
2022-08-21T22:38:30.657Z,2.78
2022-08-21T22:41:19.006Z,2.28
2022-08-21T22:43:55.162Z,2.85
2022-08-21T22:46:29.289Z,2.83
2022-08-21T22:49:05.958Z,2.03
2022-08-21T22:51:39.519Z,2.63
2022-08-21T22:54:21.650Z,2.08
2022-08-21T22:57:06.045Z,2.15
2022-08-21T22:59:52.101Z,2.75
2022-08-21T23:02:31.536Z,1.92
2022-08-21T23:05:03.189Z,2.30
2022-08-21T23:07:36.474Z,1.90
2022-08-21T23:10:22.375Z,2.17
2022-08-21T23:13:06.213Z,2.20
2022-08-21T23:15:47.111Z,2.42
2022-08-21T23:18:25.574Z,2.30
2022-08-21T23:21:01.030Z,2.10
2022-08-21T23:23:35.757Z,2.00
2022-08-21T23:26:18.293Z,1.95
2022-08-21T23:29:07.807Z,2.33
2022-08-21T23:31:44.084Z,2.22
2022-08-21T23:34:25.587Z,2.92
2022-08-21T23:37:48.412Z,2.17
2022-08-21T23:40:51.398Z,2.92
2022-08-21T23:43:37.388Z,2.10
2022-08-21T23:46:33.819Z,2.13
2022-08-21T23:49:17.573Z,2.22
2022-08-21T23:52:00.161Z,2.35
2022-08-21T23:54:34.040Z,2.20
2022-08-21T23:57:11.893Z,2.08
2022-08-21T23:59:53.439Z,2.33
